LOWIEGNM

Guest
Details From LOWI - Innsbruck Kranebitten
To EGNM - Leeds Bradford
Flight Number -
Tags Generated
Created
Modified
Stats Distance 634 nm / 1,174 km
Max Altitude 0 ft / 0 m
Waypoints 4
Social Downloads 0
Likes 0
Share VATSIM

Download

Looking for another format? Having issues loading an existing format? Contact us
Advertisement - Login to hide

Notes

Generated

Route

LOWI BVG LBA EGNM

ID Type Via Altitude Latitude Longitude Leg Dist Tot Dist Heading (true) Name
O LOWI APT - 0 ft / 0 m 47.25883˚ 11.33091˚ - 0 nm - -
BVG VOR - 0 ft / 0 m 50.79365˚ 5.19530˚ 321 nm 321 nm 314° / 309° Bevingen VORTAC
LBA NDB - 0 ft / 0 m 53.86499˚ -1.65289˚ 311 nm 632 nm 309° / 304° LEEDS BRADFORD NDB
O EGNM APT - 0 ft / 0 m 53.87335˚ -1.67205˚ 0 nm 633 nm 307° / 306° -

Altitude Profile

Advertisement - Login to hide

Weather


0- 5 10 15 20 25 30 35+ Temperature / ° C

Clouds and Precipitation
Forecast for 2017-12-11 00:00 UTC. Updated an hour ago

Ground ~20,000 ft ~40,000 ft Winds

LOWI

Details ICAO LOWI (INN)
Name Innsbruck Kranebitten
Region Austria
Timezone Europe/Vienna (UTC+1.0)
Stats Elevation 1,906 ft / 581 m (AMSL)
Location 47.260226° 11.343967°
Runways 1
Magnetic Variation 3.018° E

METAR

LOWI 110020Z AUTO 27007KT 190V330 9999 FEW240 M02/M04 Q0993

Decode

TAF

TAF LOWI 102315Z 1100/1124 27010KT 9999 FEW070 BKN100 TX11/1113Z TN00/1100Z BECMG 1109/1111 12012G30KT TEMPO 1110/1118 12040G60KT SCT100 BKN250 BECMG 1120/1122 27010KT -RA FEW040 BKN060

Decode

Departure Runways

ID Width Length Bearing (true) Bearing (mag) Surface Threshold Offset Overrun Length
08 148 ft / 45 m 6,545 ft / 1,995 m 81.02° 78.00° Asphalt 338 ft / 103 m 0 ft / 0 m
26 148 ft / 45 m 6,545 ft / 1,995 m 261.04° 258.02° Asphalt 0 ft / 0 m 0 ft / 0 m

EGNM

Details ICAO EGNM (LBA)
Name Leeds Bradford
Region United Kingdom
Timezone Europe/London (UTC+0.0)
Stats Elevation 681 ft / 208 m (AMSL)
Location 53.866027° -1.660778°
Runways 1
Magnetic Variation 1.300° W

METAR

EGNM 110020Z 01007KT CAVOK M01/M04 Q0983

Decode

TAF

TAF TAF EGNM 102307Z 1100/1124 34006KT 9999 FEW020

Decode

Destination Runways

ID Width Length Bearing (true) Bearing (mag) Surface Threshold Offset Overrun Length
14 151 ft / 46 m 7,377 ft / 2,248 m 137.79° 139.09° Concrete 1,024 ft / 312 m 46 ft / 14 m
32 151 ft / 46 m 7,377 ft / 2,248 m 317.81° 319.11° Concrete 899 ft / 274 m 49 ft / 15 m

Approach Navaids

Runway Type Ident Frequency Range Bearing (true) Bearing (mag) Slope Elevation
14 Localiser ILBF 110.90 MHz 18 nm / 33 km 137.73° 139.03° - 681 ft / 208 m (AMSL)
14 Glidescope ILBF 110.90 MHz 10 nm / 19 km 137.80° 139.10° 3.50° 681 ft / 208 m (AMSL)
14 DME ILBF 110.90 MHz 18 nm / 33 km - - - 681 ft / 208 m (AMSL)
32 Localiser ILF 110.90 MHz 18 nm / 33 km 317.80° 319.10° - 681 ft / 208 m (AMSL)
32 Glidescope ILF 110.90 MHz 10 nm / 19 km 317.80° 319.10° 3.00° 681 ft / 208 m (AMSL)
32 DME ILF 110.90 MHz 18 nm / 33 km - - - 687 ft / 209 m (AMSL)

Popular Alternatives